createdAt,value
2022-08-26T00:00:16.916Z,79.97
2022-08-26T00:02:45.383Z,79.31
2022-08-26T00:05:13.653Z,78.84
2022-08-26T00:07:42.005Z,77.92
2022-08-26T00:10:12.176Z,77.98
2022-08-26T00:12:40.696Z,78.66
2022-08-26T00:15:12.485Z,78.55
2022-08-26T00:17:42.254Z,78.49
2022-08-26T00:20:11.438Z,78.38
2022-08-26T00:22:39.567Z,78.37
2022-08-26T00:25:09.360Z,78.12
2022-08-26T00:27:38.344Z,77.46
2022-08-26T00:30:11.590Z,76.82
2022-08-26T00:32:41.365Z,76.25
2022-08-26T00:35:13.225Z,75.84
2022-08-26T00:37:43.433Z,75.43
2022-08-26T00:40:16.532Z,75.37
2022-08-26T00:42:45.895Z,75.88
2022-08-26T00:45:15.324Z,76.79
2022-08-26T00:47:49.275Z,77.58
2022-08-26T00:50:23.101Z,78.20
2022-08-26T00:52:52.282Z,78.56
2022-08-26T00:55:23.277Z,78.97
2022-08-26T00:57:53.064Z,79.26
2022-08-26T01:01:15.020Z,79.02
2022-08-26T01:03:49.753Z,79.60
2022-08-26T01:06:20.853Z,79.84
2022-08-26T01:08:49.408Z,79.35
2022-08-26T01:11:17.553Z,79.26
2022-08-26T01:13:47.603Z,79.55
2022-08-26T01:16:17.446Z,79.43
2022-08-26T01:18:47.779Z,79.53
2022-08-26T01:21:22.850Z,79.71
2022-08-26T01:23:57.682Z,80.04
2022-08-26T01:26:29.083Z,80.20
2022-08-26T01:29:00.347Z,79.94
2022-08-26T01:31:31.805Z,80.09
2022-08-26T01:34:06.083Z,81.15
2022-08-26T01:36:34.406Z,80.99
2022-08-26T01:39:05.912Z,81.65
2022-08-26T01:41:36.600Z,81.73
2022-08-26T01:44:07.934Z,81.12
2022-08-26T01:46:38.479Z,80.74
2022-08-26T01:49:09.441Z,80.58
2022-08-26T01:51:40.387Z,81.50
2022-08-26T01:54:11.816Z,81.50
2022-08-26T01:56:40.716Z,81.91
2022-08-26T01:59:12.443Z,81.61
2022-08-26T02:01:42.036Z,81.54
2022-08-26T02:04:17.024Z,80.75
2022-08-26T02:06:46.042Z,80.95
2022-08-26T02:09:16.591Z,80.33
2022-08-26T02:11:45.222Z,80.16
2022-08-26T02:14:17.571Z,80.35
2022-08-26T02:16:47.987Z,80.69
2022-08-26T02:19:21.563Z,81.68
2022-08-26T02:21:52.129Z,81.13
2022-08-26T02:24:23.547Z,82.06
2022-08-26T02:26:52.318Z,81.61
2022-08-26T02:29:25.944Z,81.03
2022-08-26T02:31:55.798Z,80.77
2022-08-26T02:34:31.362Z,81.57
2022-08-26T02:37:00.166Z,81.48
2022-08-26T02:39:29.816Z,81.54
2022-08-26T02:41:58.356Z,81.78
2022-08-26T02:44:27.393Z,81.79
2022-08-26T02:46:56.585Z,81.75
2022-08-26T02:49:25.410Z,81.80
2022-08-26T02:51:54.295Z,82.48
2022-08-26T02:54:22.881Z,82.46
2022-08-26T02:56:52.812Z,82.51
2022-08-26T02:59:24.255Z,82.64
2022-08-26T03:01:56.052Z,82.04
2022-08-26T03:04:25.745Z,81.95
2022-08-26T03:06:55.580Z,81.80
2022-08-26T03:09:24.133Z,82.12
2022-08-26T03:11:55.520Z,82.11
2022-08-26T03:14:24.917Z,81.87
2022-08-26T03:16:54.504Z,81.71
2022-08-26T03:19:24.130Z,81.80
2022-08-26T03:21:53.047Z,82.13
2022-08-26T03:24:26.819Z,82.72
2022-08-26T03:26:56.335Z,83.38
2022-08-26T03:29:43.947Z,84.08
2022-08-26T03:32:21.603Z,84.92
2022-08-26T03:34:49.680Z,85.88
2022-08-26T03:37:17.714Z,86.15
2022-08-26T03:39:46.534Z,85.95
2022-08-26T03:42:16.157Z,85.36
2022-08-26T03:44:44.394Z,85.12
2022-08-26T03:47:12.662Z,85.81
2022-08-26T03:49:41.914Z,85.03
2022-08-26T03:52:10.628Z,84.69
2022-08-26T03:54:38.848Z,84.09
2022-08-26T03:57:08.718Z,85.10
2022-08-26T03:59:38.218Z,85.27
2022-08-26T04:02:11.772Z,84.86
2022-08-26T04:04:40.392Z,84.09
2022-08-26T04:07:08.650Z,84.01
2022-08-26T04:09:36.929Z,84.18
2022-08-26T04:12:05.942Z,84.43
2022-08-26T04:14:35.483Z,84.21
2022-08-26T04:17:07.369Z,83.67
2022-08-26T04:19:36.007Z,83.94
2022-08-26T04:22:04.049Z,84.95
2022-08-26T04:24:33.004Z,84.68
2022-08-26T04:27:02.613Z,84.73
2022-08-26T04:29:31.236Z,85.59
2022-08-26T04:31:59.630Z,84.81
2022-08-26T04:34:29.611Z,86.05
2022-08-26T04:36:58.290Z,85.62
2022-08-26T04:39:27.643Z,85.31
2022-08-26T04:41:57.757Z,85.52
2022-08-26T04:44:28.627Z,85.24
2022-08-26T04:46:57.863Z,85.57
2022-08-26T04:49:26.237Z,85.70
2022-08-26T04:51:57.149Z,85.60
2022-08-26T04:54:26.246Z,85.20
2022-08-26T04:56:54.451Z,84.73
2022-08-26T04:59:22.850Z,84.70
2022-08-26T05:01:56.465Z,83.88
2022-08-26T05:04:24.694Z,84.43
2022-08-26T05:06:56.756Z,84.62
2022-08-26T05:09:29.285Z,84.98
2022-08-26T05:11:58.680Z,84.79
2022-08-26T05:14:26.788Z,83.98
2022-08-26T05:16:55.850Z,83.57
2022-08-26T05:19:24.865Z,83.31
2022-08-26T05:21:56.097Z,83.27
2022-08-26T05:24:24.716Z,83.08
2022-08-26T05:26:54.538Z,83.80
2022-08-26T05:29:25.190Z,83.37
2022-08-26T05:31:53.857Z,83.98
2022-08-26T05:34:24.355Z,84.23
2022-08-26T05:36:58.398Z,83.69
2022-08-26T05:39:26.528Z,83.89
2022-08-26T05:41:55.926Z,83.93
2022-08-26T05:44:24.845Z,85.00
2022-08-26T05:46:53.237Z,84.49
2022-08-26T05:49:22.570Z,83.15
2022-08-26T05:51:54.555Z,82.65
2022-08-26T05:54:22.711Z,82.80
2022-08-26T05:56:51.540Z,82.69
2022-08-26T05:59:23.981Z,82.40
2022-08-26T06:01:53.421Z,82.01
2022-08-26T06:04:22.487Z,81.27
2022-08-26T06:06:55.007Z,81.09
2022-08-26T06:09:23.138Z,80.05
2022-08-26T06:11:51.882Z,79.61
2022-08-26T06:14:23.165Z,80.22
2022-08-26T06:16:51.303Z,77.73
2022-08-26T06:19:20.171Z,76.22
2022-08-26T06:21:54.719Z,75.35
2022-08-26T06:24:40.499Z,75.15
2022-08-26T06:27:11.461Z,74.93
2022-08-26T06:29:42.698Z,75.12
2022-08-26T06:32:10.882Z,75.87
2022-08-26T06:34:39.065Z,74.33
2022-08-26T06:37:07.312Z,72.59
2022-08-26T06:39:35.707Z,71.54
2022-08-26T06:42:09.292Z,71.36
2022-08-26T06:44:40.955Z,71.56
2022-08-26T06:47:11.659Z,72.66
2022-08-26T06:49:41.801Z,70.81
2022-08-26T06:52:14.411Z,70.02
2022-08-26T06:54:48.028Z,68.11
2022-08-26T06:57:18.230Z,70.74
2022-08-26T06:59:46.394Z,68.08
2022-08-26T07:02:16.372Z,69.67
2022-08-26T07:04:47.930Z,68.38
2022-08-26T07:07:16.308Z,70.93
2022-08-26T07:09:44.422Z,67.24
2022-08-26T07:12:12.543Z,67.53
2022-08-26T07:14:41.394Z,67.49
2022-08-26T07:17:20.907Z,66.40
2022-08-26T07:19:53.714Z,67.72
2022-08-26T07:22:21.866Z,67.26
2022-08-26T07:24:50.078Z,64.14
2022-08-26T07:27:18.763Z,65.25
2022-08-26T07:29:49.895Z,62.46
2022-08-26T07:32:22.990Z,63.63
2022-08-26T07:34:53.335Z,59.85
2022-08-26T07:37:21.491Z,62.45
2022-08-26T07:39:52.133Z,58.86
2022-08-26T07:42:23.269Z,60.49
2022-08-26T07:44:52.181Z,55.74
2022-08-26T07:47:24.984Z,53.90
2022-08-26T07:49:57.881Z,56.28
2022-08-26T07:52:28.993Z,57.39
2022-08-26T07:54:58.388Z,55.51
2022-08-26T07:57:26.935Z,55.13
2022-08-26T07:59:55.793Z,56.50
2022-08-26T08:02:26.236Z,54.82
2022-08-26T08:04:56.928Z,56.08
2022-08-26T08:07:38.628Z,56.42
2022-08-26T08:10:16.355Z,56.08
2022-08-26T08:12:44.806Z,54.53
2022-08-26T08:15:21.382Z,55.15
2022-08-26T08:17:51.650Z,53.33
2022-08-26T08:20:25.820Z,53.55
2022-08-26T08:22:55.297Z,53.16
2022-08-26T08:25:25.823Z,53.15
2022-08-26T08:27:54.052Z,54.89
2022-08-26T08:30:23.460Z,53.90
2022-08-26T08:32:51.868Z,53.23
2022-08-26T08:35:22.550Z,53.35
2022-08-26T08:37:54.521Z,53.35
2022-08-26T08:40:25.253Z,51.73
2022-08-26T08:42:58.285Z,51.94
2022-08-26T08:45:36.643Z,51.72
2022-08-26T08:48:11.017Z,49.98
2022-08-26T08:50:44.690Z,50.38
2022-08-26T08:53:19.008Z,50.95
2022-08-26T08:55:59.453Z,50.68
2022-08-26T08:58:36.555Z,50.37
2022-08-26T09:01:09.781Z,49.38
2022-08-26T09:03:52.627Z,52.91
2022-08-26T09:06:21.515Z,50.57
2022-08-26T09:08:56.550Z,50.55
2022-08-26T09:11:24.716Z,50.23
2022-08-26T09:13:55.616Z,47.80
2022-08-26T09:16:34.080Z,50.74
2022-08-26T09:19:14.338Z,48.80
2022-08-26T09:21:42.551Z,49.98
2022-08-26T09:24:13.994Z,48.60
2022-08-26T09:26:48.470Z,47.68
2022-08-26T09:29:24.541Z,47.26
2022-08-26T09:32:16.102Z,47.47
2022-08-26T09:34:58.077Z,48.17
2022-08-26T09:37:36.697Z,46.28
2022-08-26T09:40:22.606Z,46.53
2022-08-26T09:43:08.836Z,46.15
2022-08-26T09:45:38.805Z,46.69
2022-08-26T09:48:09.055Z,45.86
2022-08-26T09:50:53.205Z,43.68
2022-08-26T09:53:28.819Z,44.15
2022-08-26T09:56:19.786Z,46.94
2022-08-26T09:58:49.322Z,43.84
2022-08-26T10:01:33.314Z,42.86
2022-08-26T10:04:07.770Z,46.08
2022-08-26T10:06:40.027Z,43.17
2022-08-26T10:09:14.605Z,43.42
2022-08-26T10:11:49.683Z,44.62
2022-08-26T10:14:25.105Z,43.98
2022-08-26T10:17:03.410Z,41.97
2022-08-26T10:19:41.333Z,43.13
2022-08-26T10:22:19.809Z,43.45
2022-08-26T10:24:54.942Z,41.75
2022-08-26T10:27:31.596Z,41.17
2022-08-26T10:30:11.209Z,42.28
2022-08-26T10:32:42.692Z,41.01
2022-08-26T10:35:18.344Z,39.57
2022-08-26T10:38:14.526Z,40.50
2022-08-26T10:40:55.213Z,38.53
2022-08-26T10:43:33.347Z,38.13
2022-08-26T10:46:07.478Z,40.17
2022-08-26T10:48:42.828Z,36.87
2022-08-26T10:51:14.674Z,38.14
2022-08-26T10:53:55.935Z,38.31
2022-08-26T10:56:44.819Z,38.41
2022-08-26T10:59:28.948Z,38.81
2022-08-26T11:02:10.297Z,36.30
2022-08-26T11:04:48.442Z,37.90
2022-08-26T11:07:43.766Z,37.04
2022-08-26T11:11:04.189Z,37.11
2022-08-26T11:14:05.654Z,35.40
2022-08-26T11:16:43.331Z,35.28
2022-08-26T11:19:13.533Z,37.98
2022-08-26T11:21:51.110Z,34.02
2022-08-26T11:25:01.615Z,34.72
2022-08-26T11:28:04.438Z,35.33
2022-08-26T11:30:58.302Z,35.51
2022-08-26T11:33:59.881Z,34.85
2022-08-26T11:36:42.114Z,33.83
2022-08-26T11:39:20.451Z,35.79
2022-08-26T11:41:53.614Z,34.32
2022-08-26T11:44:24.182Z,37.23
2022-08-26T11:47:03.588Z,32.83
2022-08-26T11:49:35.042Z,32.98
2022-08-26T11:52:12.240Z,33.20
2022-08-26T11:54:40.863Z,33.49
2022-08-26T11:57:14.723Z,34.81
2022-08-26T11:59:43.570Z,33.58
2022-08-26T12:02:17.947Z,36.03
2022-08-26T12:04:53.040Z,34.50
2022-08-26T12:07:27.133Z,36.71
2022-08-26T12:10:00.439Z,37.30
2022-08-26T12:12:35.272Z,34.05
2022-08-26T12:15:17.489Z,36.25
2022-08-26T12:17:52.962Z,34.25
2022-08-26T12:20:46.116Z,33.47
2022-08-26T12:23:41.415Z,34.23
2022-08-26T12:26:41.356Z,33.92
2022-08-26T12:29:27.227Z,34.02
2022-08-26T12:32:09.134Z,32.76
2022-08-26T12:34:43.124Z,33.88
2022-08-26T12:37:15.442Z,32.52
2022-08-26T12:39:46.421Z,35.29
2022-08-26T12:42:41.403Z,34.17
2022-08-26T12:45:10.032Z,32.55
2022-08-26T12:47:42.978Z,32.11
2022-08-26T12:50:19.540Z,34.33
2022-08-26T12:53:00.165Z,32.73
2022-08-26T12:55:43.965Z,33.56
2022-08-26T12:58:24.743Z,32.49
2022-08-26T13:00:57.014Z,31.37
2022-08-26T13:03:32.563Z,33.25
2022-08-26T13:06:28.104Z,30.32
2022-08-26T13:08:59.856Z,34.09
2022-08-26T13:11:29.864Z,33.67
2022-08-26T13:14:02.351Z,32.12
2022-08-26T13:16:40.840Z,29.72
2022-08-26T13:19:11.559Z,30.43
2022-08-26T13:21:45.010Z,31.75
2022-08-26T13:24:17.723Z,31.47
2022-08-26T13:26:49.167Z,34.09
2022-08-26T13:29:18.057Z,31.33
2022-08-26T13:32:01.969Z,33.39
2022-08-26T13:34:32.253Z,31.61
2022-08-26T13:37:01.509Z,32.86
2022-08-26T13:39:30.066Z,33.64
2022-08-26T13:41:58.481Z,31.33
2022-08-26T13:44:26.999Z,29.72
2022-08-26T13:46:55.891Z,31.34
2022-08-26T13:49:25.855Z,30.68
2022-08-26T13:51:54.575Z,29.74
2022-08-26T13:54:26.840Z,33.00
2022-08-26T13:56:56.486Z,31.71
2022-08-26T13:59:27.281Z,31.12
2022-08-26T14:01:55.731Z,31.08
2022-08-26T14:04:27.245Z,29.80
2022-08-26T14:06:55.847Z,29.22
2022-08-26T14:09:27.275Z,32.80
2022-08-26T14:12:00.977Z,32.74
2022-08-26T14:14:35.983Z,31.52
2022-08-26T14:17:04.471Z,31.50
2022-08-26T14:19:37.597Z,31.03
2022-08-26T14:22:06.301Z,29.45
2022-08-26T14:24:38.223Z,29.46
2022-08-26T14:27:07.242Z,29.67
2022-08-26T14:29:35.468Z,29.82
2022-08-26T14:32:15.583Z,31.04
2022-08-26T14:34:45.458Z,30.90
2022-08-26T14:37:15.400Z,29.53
2022-08-26T14:39:46.014Z,33.32
2022-08-26T14:42:21.082Z,32.12
2022-08-26T14:44:55.943Z,33.88
2022-08-26T14:47:24.567Z,33.53
2022-08-26T14:49:54.311Z,33.07
2022-08-26T14:52:22.656Z,30.51
2022-08-26T14:54:54.887Z,30.03
2022-08-26T14:57:24.924Z,31.87
2022-08-26T14:59:53.938Z,31.99
2022-08-26T15:02:33.249Z,30.29
2022-08-26T15:05:04.260Z,29.18
2022-08-26T15:07:33.072Z,32.20
2022-08-26T15:10:01.317Z,33.11
2022-08-26T15:12:31.507Z,32.90
2022-08-26T15:15:00.443Z,32.52
2022-08-26T15:17:33.675Z,33.26
2022-08-26T15:20:08.223Z,35.25
2022-08-26T15:22:42.494Z,36.24
2022-08-26T15:25:14.220Z,35.29
2022-08-26T15:27:42.701Z,34.93
2022-08-26T15:30:14.101Z,36.51
2022-08-26T15:32:43.910Z,35.58
2022-08-26T15:35:14.457Z,37.10
2022-08-26T15:37:42.948Z,35.73
2022-08-26T15:40:22.062Z,37.26
2022-08-26T15:43:01.187Z,36.86
2022-08-26T15:45:39.746Z,36.86
2022-08-26T15:48:07.906Z,37.32
2022-08-26T15:50:49.953Z,37.44
2022-08-26T15:53:18.269Z,37.88
2022-08-26T15:55:46.644Z,37.26
2022-08-26T15:58:16.967Z,37.88
2022-08-26T16:00:46.713Z,37.72
2022-08-26T16:03:21.181Z,37.77
2022-08-26T16:05:50.809Z,39.13
2022-08-26T16:08:20.335Z,41.38
2022-08-26T16:10:51.547Z,39.17
2022-08-26T16:13:22.217Z,38.81
2022-08-26T16:15:54.886Z,38.85
2022-08-26T16:18:24.553Z,39.37
2022-08-26T16:21:12.644Z,39.57
2022-08-26T16:23:45.358Z,40.43
2022-08-26T16:26:19.597Z,39.35
2022-08-26T16:28:49.765Z,39.80
2022-08-26T16:31:18.560Z,40.40
2022-08-26T16:33:47.413Z,40.15
2022-08-26T16:36:18.003Z,40.94
2022-08-26T16:38:50.344Z,41.65
2022-08-26T16:41:20.070Z,41.87
2022-08-26T16:43:48.981Z,42.19
2022-08-26T16:46:19.172Z,41.54
2022-08-26T16:48:48.950Z,43.45
2022-08-26T16:51:23.116Z,42.82
2022-08-26T16:53:57.841Z,42.69
2022-08-26T16:56:34.038Z,42.50
2022-08-26T16:59:03.505Z,43.17
2022-08-26T17:01:33.474Z,44.03
2022-08-26T17:04:01.824Z,44.24
2022-08-26T17:06:31.823Z,44.74
2022-08-26T17:09:00.186Z,45.02
2022-08-26T17:11:28.705Z,45.69
2022-08-26T17:13:57.208Z,46.74
2022-08-26T17:16:27.123Z,46.60
2022-08-26T17:18:57.430Z,47.30
2022-08-26T17:21:26.999Z,47.43
2022-08-26T17:23:56.699Z,47.26
2022-08-26T17:26:24.847Z,47.32
2022-08-26T17:28:53.075Z,47.32
2022-08-26T17:31:22.058Z,47.71
2022-08-26T17:33:53.886Z,47.39
2022-08-26T17:36:27.794Z,47.82
2022-08-26T17:39:00.218Z,48.59
2022-08-26T17:41:30.111Z,48.21
2022-08-26T17:43:58.562Z,48.40
2022-08-26T17:46:26.997Z,48.48
2022-08-26T17:48:55.473Z,49.04
2022-08-26T17:51:25.706Z,48.89
2022-08-26T17:53:54.276Z,48.80
2022-08-26T17:56:26.815Z,49.67
2022-08-26T17:58:57.025Z,49.43
2022-08-26T18:01:27.654Z,49.73
2022-08-26T18:04:00.373Z,50.25
2022-08-26T18:06:30.531Z,50.68
2022-08-26T18:09:00.625Z,50.52
2022-08-26T18:11:31.312Z,50.70
2022-08-26T18:14:00.389Z,50.14
2022-08-26T18:16:32.015Z,49.89
2022-08-26T18:19:01.140Z,50.42
2022-08-26T18:21:29.412Z,50.28
2022-08-26T18:23:59.183Z,49.81
2022-08-26T18:26:31.233Z,50.76
2022-08-26T18:28:59.931Z,51.52
2022-08-26T18:31:33.553Z,51.58
2022-08-26T18:34:03.099Z,51.11
2022-08-26T18:36:33.843Z,51.21
2022-08-26T18:39:02.796Z,51.75
2022-08-26T18:41:34.827Z,51.80
2022-08-26T18:44:03.595Z,52.49
2022-08-26T18:46:31.962Z,52.38
2022-08-26T18:49:00.257Z,52.24
2022-08-26T18:51:35.325Z,52.73
2022-08-26T18:54:05.931Z,53.33
2022-08-26T18:56:37.634Z,52.63
2022-08-26T18:59:08.856Z,52.91
2022-08-26T19:01:40.875Z,53.09
2022-08-26T19:04:15.626Z,53.42
2022-08-26T19:06:46.385Z,54.76
2022-08-26T19:09:15.326Z,55.27
2022-08-26T19:11:49.815Z,54.42
2022-08-26T19:14:18.591Z,54.90
2022-08-26T19:16:48.654Z,54.31
2022-08-26T19:19:18.037Z,54.42
2022-08-26T19:21:47.422Z,55.37
2022-08-26T19:24:18.079Z,57.88
2022-08-26T19:26:50.385Z,57.99
2022-08-26T19:29:27.617Z,56.89
2022-08-26T19:31:56.851Z,57.00
2022-08-26T19:34:25.225Z,57.43
2022-08-26T19:36:55.139Z,58.87
2022-08-26T19:39:23.923Z,58.42
2022-08-26T19:41:54.067Z,60.56
2022-08-26T19:44:42.111Z,58.65
2022-08-26T19:47:14.812Z,56.54
2022-08-26T19:49:43.474Z,60.00
2022-08-26T19:52:14.326Z,59.39
2022-08-26T19:54:42.903Z,57.44
2022-08-26T19:57:12.800Z,56.77
2022-08-26T19:59:43.933Z,57.86
2022-08-26T20:02:13.129Z,55.18
2022-08-26T20:04:42.378Z,55.09
2022-08-26T20:07:14.252Z,55.42
2022-08-26T20:09:46.879Z,55.87
2022-08-26T20:12:17.754Z,55.89
2022-08-26T20:14:50.312Z,55.07
2022-08-26T20:17:18.938Z,57.04
2022-08-26T20:20:05.059Z,56.37
2022-08-26T20:22:34.504Z,59.71
2022-08-26T20:25:03.186Z,60.84
2022-08-26T20:27:38.302Z,60.48
2022-08-26T20:30:09.561Z,60.55
2022-08-26T20:32:38.543Z,59.36
2022-08-26T20:35:08.866Z,58.58
2022-08-26T20:37:38.159Z,59.82
2022-08-26T20:40:08.685Z,55.65
2022-08-26T20:42:38.724Z,55.05
2022-08-26T20:45:08.759Z,54.96
2022-08-26T20:47:37.078Z,55.38
2022-08-26T20:50:06.342Z,55.57
2022-08-26T20:52:34.851Z,60.97
2022-08-26T20:55:03.105Z,58.72
2022-08-26T20:57:31.403Z,59.54
2022-08-26T21:00:01.196Z,59.84
2022-08-26T21:02:29.581Z,61.02
2022-08-26T21:04:57.854Z,61.83
2022-08-26T21:07:26.549Z,60.19
2022-08-26T21:09:54.732Z,64.16
2022-08-26T21:12:25.161Z,64.88
2022-08-26T21:14:53.573Z,64.25
2022-08-26T21:17:23.177Z,63.94
2022-08-26T21:19:51.639Z,66.07
2022-08-26T21:22:19.880Z,65.45
2022-08-26T21:24:48.397Z,69.07
2022-08-26T21:27:23.040Z,68.03
2022-08-26T21:29:54.828Z,66.93
2022-08-26T21:32:24.414Z,68.68
2022-08-26T21:34:56.487Z,70.77
2022-08-26T21:37:25.854Z,68.10
2022-08-26T21:39:54.777Z,71.24
2022-08-26T21:42:24.375Z,70.47
2022-08-26T21:44:53.521Z,71.11
2022-08-26T21:47:22.133Z,70.57
2022-08-26T21:49:52.202Z,69.18
2022-08-26T21:52:21.381Z,68.92
2022-08-26T21:54:49.986Z,68.85
2022-08-26T21:57:18.750Z,67.95
2022-08-26T21:59:47.245Z,65.65
2022-08-26T22:02:15.943Z,68.72
2022-08-26T22:04:48.208Z,69.60
2022-08-26T22:07:19.436Z,69.29
2022-08-26T22:09:47.906Z,68.84
2022-08-26T22:12:18.419Z,68.87
2022-08-26T22:14:48.252Z,69.61
2022-08-26T22:17:17.155Z,67.93
2022-08-26T22:19:46.095Z,67.80
2022-08-26T22:22:16.069Z,68.17
2022-08-26T22:24:45.751Z,68.23
2022-08-26T22:27:14.923Z,68.24
2022-08-26T22:29:43.231Z,69.23
2022-08-26T22:32:13.785Z,68.14
2022-08-26T22:34:43.139Z,68.22
2022-08-26T22:37:11.625Z,68.67
2022-08-26T22:39:39.907Z,68.59
2022-08-26T22:42:09.826Z,68.28
2022-08-26T22:44:38.216Z,68.74
2022-08-26T22:47:06.802Z,68.24
2022-08-26T22:49:35.102Z,68.54
2022-08-26T22:52:03.631Z,68.19
2022-08-26T22:54:31.901Z,68.91
2022-08-26T22:57:00.183Z,70.62
2022-08-26T22:59:29.920Z,70.58
2022-08-26T23:01:58.137Z,71.54
2022-08-26T23:04:26.408Z,71.88
2022-08-26T23:06:54.622Z,70.86
2022-08-26T23:09:22.907Z,72.43
2022-08-26T23:11:51.116Z,72.03
2022-08-26T23:14:20.423Z,72.49
2022-08-26T23:16:50.551Z,73.29
2022-08-26T23:19:20.971Z,72.69
2022-08-26T23:21:50.222Z,72.29
2022-08-26T23:24:19.091Z,71.62
2022-08-26T23:26:47.550Z,72.58
2022-08-26T23:29:16.521Z,73.45
2022-08-26T23:31:46.885Z,73.31
2022-08-26T23:34:33.865Z,73.20
2022-08-26T23:37:02.666Z,75.07
2022-08-26T23:39:34.060Z,75.07
2022-08-26T23:42:03.056Z,76.26
2022-08-26T23:44:31.826Z,75.56
2022-08-26T23:47:00.457Z,75.84
2022-08-26T23:49:30.523Z,75.01
2022-08-26T23:52:16.390Z,74.98
2022-08-26T23:54:44.646Z,74.41
2022-08-26T23:57:12.865Z,74.52
2022-08-26T23:59:41.388Z,74.98
